createdAt,value
2022-12-29T00:01:14.718Z,21.85
2022-12-29T00:06:17.469Z,21.88
2022-12-29T00:11:21.464Z,21.91
2022-12-29T00:16:25.635Z,21.89
2022-12-29T00:21:46.018Z,21.92
2022-12-29T00:27:06.479Z,21.93
2022-12-29T00:32:28.249Z,21.92
2022-12-29T00:37:45.134Z,21.92
2022-12-29T00:43:06.023Z,21.91
2022-12-29T00:48:10.185Z,21.93
2022-12-29T00:53:12.992Z,21.94
2022-12-29T00:58:16.856Z,21.93
2022-12-29T01:03:22.134Z,21.89
2022-12-29T01:08:25.136Z,21.90
2022-12-29T01:13:27.931Z,21.91
2022-12-29T01:18:32.097Z,21.94
2022-12-29T01:23:35.841Z,21.93
2022-12-29T01:28:41.077Z,21.90
2022-12-29T01:33:45.316Z,21.90
2022-12-29T01:38:48.544Z,21.88
2022-12-29T01:43:52.404Z,21.90
2022-12-29T01:49:00.955Z,21.92
2022-12-29T01:54:04.796Z,21.92
2022-12-29T01:59:08.792Z,21.91
2022-12-29T02:04:13.062Z,21.94
2022-12-29T02:09:15.856Z,21.94
2022-12-29T02:14:21.214Z,21.92
2022-12-29T02:19:56.571Z,21.90
2022-12-29T02:25:40.190Z,21.86
2022-12-29T02:30:47.608Z,21.89
2022-12-29T02:35:54.698Z,21.91
2022-12-29T02:40:59.986Z,21.94
2022-12-29T02:46:06.698Z,21.93
2022-12-29T02:51:11.473Z,21.97
2022-12-29T02:56:14.261Z,21.98
2022-12-29T03:01:25.272Z,21.96
2022-12-29T03:06:33.269Z,21.98
2022-12-29T03:11:57.412Z,21.99
2022-12-29T03:17:02.598Z,21.95
2022-12-29T03:22:23.968Z,22.01
2022-12-29T03:27:35.630Z,22.01
2022-12-29T03:32:40.786Z,22.01
2022-12-29T03:37:45.069Z,22.00
2022-12-29T03:42:49.344Z,22.02
2022-12-29T03:47:53.604Z,21.94
2022-12-29T03:52:57.046Z,21.98
2022-12-29T03:57:59.978Z,21.98
2022-12-29T04:03:22.842Z,21.86
2022-12-29T04:08:26.652Z,21.77
2022-12-29T04:13:29.553Z,21.66
2022-12-29T04:18:33.960Z,21.51
2022-12-29T04:23:38.143Z,21.43
2022-12-29T04:28:43.456Z,21.35
2022-12-29T04:34:03.481Z,21.29
2022-12-29T04:39:07.231Z,21.20
2022-12-29T04:44:11.615Z,21.15
2022-12-29T04:49:18.410Z,21.17
2022-12-29T04:54:24.290Z,21.18
2022-12-29T04:59:35.105Z,21.11
2022-12-29T05:04:39.306Z,21.09
2022-12-29T05:09:42.821Z,21.06
2022-12-29T05:14:46.493Z,21.01
2022-12-29T05:19:50.631Z,20.95
2022-12-29T05:24:53.941Z,20.92
2022-12-29T05:29:57.048Z,20.92
2022-12-29T05:35:01.305Z,20.86
2022-12-29T05:40:06.672Z,20.86
2022-12-29T05:45:10.780Z,20.83
2022-12-29T05:50:28.663Z,20.82
2022-12-29T05:55:49.128Z,20.77
2022-12-29T06:00:53.432Z,20.78
2022-12-29T06:05:57.649Z,20.77
2022-12-29T06:11:00.548Z,20.75
2022-12-29T06:16:03.948Z,20.74
2022-12-29T06:21:08.978Z,20.71
2022-12-29T06:26:12.723Z,20.67
2022-12-29T06:31:15.595Z,20.64
2022-12-29T06:36:19.732Z,20.61
2022-12-29T06:41:26.993Z,20.57
2022-12-29T06:47:03.671Z,20.51
2022-12-29T06:52:12.721Z,20.45
2022-12-29T06:57:15.858Z,20.42
2022-12-29T07:02:20.635Z,20.37
2022-12-29T07:07:25.003Z,20.34
2022-12-29T07:12:27.983Z,20.30
2022-12-29T07:17:30.715Z,20.27
2022-12-29T07:22:34.798Z,20.23
2022-12-29T07:27:37.568Z,20.18
2022-12-29T07:32:40.335Z,20.15
2022-12-29T07:37:44.474Z,20.13
2022-12-29T07:42:47.246Z,20.08
2022-12-29T07:47:52.090Z,20.07
2022-12-29T07:52:57.396Z,20.02
2022-12-29T07:58:00.145Z,20.01
2022-12-29T08:03:02.913Z,20.00
2022-12-29T08:08:07.240Z,20.02
2022-12-29T08:13:10.475Z,20.00
2022-12-29T08:18:13.235Z,19.95
2022-12-29T08:23:17.458Z,19.92
2022-12-29T08:28:20.237Z,19.89
2022-12-29T08:33:23.060Z,19.87
2022-12-29T08:38:28.757Z,19.81
2022-12-29T08:43:31.606Z,19.81
2022-12-29T08:48:34.404Z,19.79
2022-12-29T08:53:38.499Z,19.79
2022-12-29T08:58:41.473Z,19.80
2022-12-29T09:09:08.566Z,19.77
2022-12-29T09:14:11.290Z,19.78
2022-12-29T09:19:14.261Z,19.81
2022-12-29T09:24:18.501Z,19.83
2022-12-29T09:29:21.363Z,19.85
2022-12-29T09:34:24.218Z,19.86
2022-12-29T09:39:28.383Z,19.86
2022-12-29T09:44:33.841Z,19.84
2022-12-29T09:49:40.794Z,19.87
2022-12-29T09:54:56.356Z,19.86
2022-12-29T10:00:05.438Z,19.79
2022-12-29T10:05:22.208Z,19.74
2022-12-29T10:10:33.383Z,19.76
2022-12-29T10:15:52.039Z,19.73
2022-12-29T10:20:56.255Z,19.72
2022-12-29T10:26:00.941Z,19.69
2022-12-29T10:31:08.913Z,19.65
2022-12-29T10:36:15.938Z,19.66
2022-12-29T10:41:22.546Z,19.65
2022-12-29T10:46:27.390Z,19.65
2022-12-29T10:51:32.235Z,19.69
2022-12-29T10:56:38.404Z,19.71
2022-12-29T11:01:43.897Z,19.77
2022-12-29T11:06:46.861Z,19.83
2022-12-29T11:11:51.105Z,19.89
2022-12-29T11:16:58.969Z,19.87
2022-12-29T11:22:14.799Z,19.83
2022-12-29T11:27:20.650Z,19.84
2022-12-29T11:32:28.913Z,19.84
2022-12-29T11:37:35.541Z,19.87
2022-12-29T11:42:41.259Z,19.86
2022-12-29T11:47:44.685Z,19.96
2022-12-29T11:52:47.582Z,20.03
2022-12-29T11:57:51.765Z,20.06
2022-12-29T12:02:57.666Z,20.03
2022-12-29T12:08:04.203Z,20.00
2022-12-29T12:13:13.502Z,20.00
2022-12-29T12:18:19.523Z,20.00
2022-12-29T12:23:29.389Z,20.00
2022-12-29T12:28:38.874Z,20.05
2022-12-29T12:33:43.918Z,20.13
2022-12-29T12:38:49.645Z,20.15
2022-12-29T12:43:55.147Z,19.84
2022-12-29T12:49:13.969Z,19.95
2022-12-29T12:54:25.888Z,19.95
2022-12-29T12:59:45.185Z,19.95
2022-12-29T13:05:06.115Z,19.94
2022-12-29T13:10:21.724Z,19.92
2022-12-29T13:15:35.992Z,19.93
2022-12-29T13:20:41.450Z,19.90
2022-12-29T13:25:46.982Z,19.88
2022-12-29T13:30:55.173Z,19.88
2022-12-29T13:36:01.384Z,19.87
2022-12-29T13:41:06.059Z,19.90
2022-12-29T13:46:12.124Z,19.89
2022-12-29T13:51:15.271Z,19.87
2022-12-29T13:56:21.500Z,19.87
2022-12-29T14:01:29.425Z,19.86
2022-12-29T14:06:32.678Z,19.86
2022-12-29T14:11:36.709Z,19.85
2022-12-29T14:16:42.042Z,19.89
2022-12-29T14:21:52.653Z,19.91
2022-12-29T14:26:55.447Z,19.57
2022-12-29T14:31:59.688Z,19.83
2022-12-29T14:37:02.817Z,19.96
2022-12-29T14:42:06.537Z,20.06
2022-12-29T14:47:10.804Z,20.17
2022-12-29T14:52:17.251Z,20.21
2022-12-29T14:57:35.544Z,20.27
2022-12-29T15:02:41.971Z,20.32
2022-12-29T15:07:44.863Z,20.34
2022-12-29T15:12:49.691Z,20.39
2022-12-29T15:17:53.966Z,20.42
2022-12-29T15:22:58.296Z,20.48
2022-12-29T15:28:03.204Z,20.52
2022-12-29T15:33:19.460Z,20.52
2022-12-29T15:38:31.144Z,20.56
2022-12-29T15:43:46.892Z,20.57
2022-12-29T15:48:51.400Z,20.60
2022-12-29T15:53:54.560Z,20.65
2022-12-29T15:58:57.312Z,20.68
2022-12-29T16:04:01.551Z,20.71
2022-12-29T16:09:05.545Z,20.74
2022-12-29T16:14:09.751Z,20.74
2022-12-29T16:19:15.418Z,20.75
2022-12-29T16:24:20.171Z,20.77
2022-12-29T16:29:23.153Z,20.78
2022-12-29T16:34:28.776Z,20.80
2022-12-29T16:39:38.013Z,20.80
2022-12-29T16:44:40.852Z,20.81
2022-12-29T16:49:47.057Z,20.83
2022-12-29T16:54:52.089Z,20.82
2022-12-29T16:59:56.265Z,20.84
2022-12-29T17:05:00.383Z,20.82
2022-12-29T17:10:03.227Z,20.80
2022-12-29T17:15:09.230Z,20.77
2022-12-29T17:20:17.231Z,20.73
2022-12-29T17:25:21.010Z,20.70
2022-12-29T17:30:29.677Z,20.62
2022-12-29T17:35:37.358Z,20.63
2022-12-29T17:40:40.282Z,20.57
2022-12-29T17:45:43.331Z,20.49
2022-12-29T17:50:47.764Z,20.41
2022-12-29T17:55:50.507Z,20.32
2022-12-29T18:00:54.831Z,20.29
2022-12-29T18:05:59.223Z,20.27
2022-12-29T18:11:02.120Z,20.22
2022-12-29T18:16:05.622Z,20.17
2022-12-29T18:21:12.769Z,20.13
2022-12-29T18:26:20.885Z,20.07
2022-12-29T18:31:29.209Z,20.05
2022-12-29T18:36:33.413Z,20.00
2022-12-29T18:41:36.195Z,19.96
2022-12-29T18:46:40.474Z,19.94
2022-12-29T18:51:44.650Z,19.92
2022-12-29T18:56:47.420Z,19.90
2022-12-29T19:01:50.285Z,19.89
2022-12-29T19:06:54.461Z,19.85
2022-12-29T19:11:57.247Z,19.85
2022-12-29T19:17:00.663Z,19.82
2022-12-29T19:22:04.772Z,19.79
2022-12-29T19:27:07.557Z,19.78
2022-12-29T19:32:10.282Z,19.76
2022-12-29T19:37:14.505Z,19.73
2022-12-29T19:42:17.326Z,19.72
2022-12-29T19:47:21.058Z,19.71
2022-12-29T19:52:26.155Z,19.70
2022-12-29T19:57:28.941Z,19.69
2022-12-29T20:02:33.901Z,19.76
2022-12-29T20:07:38.335Z,19.83
2022-12-29T20:12:41.194Z,19.92
2022-12-29T20:18:12.596Z,20.02
2022-12-29T20:23:08.209Z,20.12
2022-12-29T20:28:10.983Z,20.20
2022-12-29T20:33:13.778Z,20.24
2022-12-29T20:38:17.939Z,20.32
2022-12-29T20:43:20.739Z,20.34
2022-12-29T20:48:23.475Z,20.42
2022-12-29T20:53:27.796Z,20.47
2022-12-29T20:58:30.905Z,20.52
2022-12-29T21:03:33.781Z,20.57
2022-12-29T21:08:38.544Z,20.63
2022-12-29T21:13:41.339Z,20.68
2022-12-29T21:18:44.117Z,20.72
2022-12-29T21:23:48.413Z,20.77
2022-12-29T21:28:51.188Z,20.81
2022-12-29T21:33:54.094Z,20.86
2022-12-29T21:38:59.101Z,20.91
2022-12-29T21:44:19.250Z,20.96
2022-12-29T21:49:23.840Z,21.00
2022-12-29T21:54:46.531Z,21.04
2022-12-29T22:00:07.097Z,21.07
2022-12-29T22:05:30.275Z,21.14
2022-12-29T22:10:52.177Z,21.18
2022-12-29T22:15:55.427Z,21.21
2022-12-29T22:20:58.563Z,21.26
2022-12-29T22:26:06.703Z,21.31
2022-12-29T22:31:25.226Z,21.45
2022-12-29T22:36:29.366Z,21.37
2022-12-29T22:41:34.841Z,21.42
2022-12-29T22:46:37.681Z,21.43
2022-12-29T22:51:40.630Z,21.44
2022-12-29T22:56:44.791Z,21.47
2022-12-29T23:01:47.729Z,21.52
2022-12-29T23:06:50.696Z,21.53
2022-12-29T23:11:55.047Z,21.57
2022-12-29T23:16:58.029Z,21.60
2022-12-29T23:22:00.922Z,21.64
2022-12-29T23:27:05.261Z,21.66
2022-12-29T23:32:08.203Z,21.63
2022-12-29T23:37:11.465Z,21.66
2022-12-29T23:42:15.777Z,21.71
2022-12-29T23:47:18.871Z,21.72
2022-12-29T23:52:21.886Z,21.77
2022-12-29T23:57:26.178Z,21.82
